sensor_id;sensor_type;location;lat;lon;timestamp;P1;durP1;ratioP1;P2;durP2;ratioP2
4424;SDS011;2225;53.568;13.266;2023-11-19T00:00:15;8.17;;;4.30;;
4424;SDS011;2225;53.568;13.266;2023-11-19T00:02:43;7.73;;;4.57;;
4424;SDS011;2225;53.568;13.266;2023-11-19T00:05:10;15.80;;;5.50;;
4424;SDS011;2225;53.568;13.266;2023-11-19T00:07:39;9.03;;;5.23;;
4424;SDS011;2225;53.568;13.266;2023-11-19T00:10:11;8.70;;;4.70;;
4424;SDS011;2225;53.568;13.266;2023-11-19T00:12:42;10.07;;;6.03;;
4424;SDS011;2225;53.568;13.266;2023-11-19T00:15:11;8.30;;;4.87;;
4424;SDS011;2225;53.568;13.266;2023-11-19T00:17:42;8.87;;;4.63;;
4424;SDS011;2225;53.568;13.266;2023-11-19T00:20:12;10.43;;;4.63;;
4424;SDS011;2225;53.568;13.266;2023-11-19T00:22:44;9.20;;;5.93;;
4424;SDS011;2225;53.568;13.266;2023-11-19T00:25:16;10.77;;;5.40;;
4424;SDS011;2225;53.568;13.266;2023-11-19T00:27:48;9.47;;;5.47;;
4424;SDS011;2225;53.568;13.266;2023-11-19T00:30:15;9.63;;;5.43;;
4424;SDS011;2225;53.568;13.266;2023-11-19T00:32:43;9.67;;;5.27;;
4424;SDS011;2225;53.568;13.266;2023-11-19T00:35:10;9.90;;;5.73;;
4424;SDS011;2225;53.568;13.266;2023-11-19T00:37:37;10.63;;;5.73;;
4424;SDS011;2225;53.568;13.266;2023-11-19T00:40:04;21.43;;;6.60;;
4424;SDS011;2225;53.568;13.266;2023-11-19T00:42:32;9.00;;;5.70;;
4424;SDS011;2225;53.568;13.266;2023-11-19T00:44:59;7.90;;;4.83;;
4424;SDS011;2225;53.568;13.266;2023-11-19T00:47:28;10.60;;;5.40;;
4424;SDS011;2225;53.568;13.266;2023-11-19T00:49:54;10.90;;;6.37;;
4424;SDS011;2225;53.568;13.266;2023-11-19T00:52:22;14.73;;;6.40;;
4424;SDS011;2225;53.568;13.266;2023-11-19T00:54:49;11.10;;;5.90;;
4424;SDS011;2225;53.568;13.266;2023-11-19T00:57:16;13.33;;;6.40;;
4424;SDS011;2225;53.568;13.266;2023-11-19T00:59:43;11.70;;;6.90;;
4424;SDS011;2225;53.568;13.266;2023-11-19T01:02:10;9.17;;;5.93;;
4424;SDS011;2225;53.568;13.266;2023-11-19T01:04:37;12.13;;;6.53;;
4424;SDS011;2225;53.568;13.266;2023-11-19T01:07:05;12.03;;;7.10;;
4424;SDS011;2225;53.568;13.266;2023-11-19T01:09:32;11.93;;;7.43;;
4424;SDS011;2225;53.568;13.266;2023-11-19T01:12:01;11.70;;;7.13;;
4424;SDS011;2225;53.568;13.266;2023-11-19T01:14:29;11.13;;;7.03;;
4424;SDS011;2225;53.568;13.266;2023-11-19T01:16:56;14.37;;;7.90;;
4424;SDS011;2225;53.568;13.266;2023-11-19T01:19:24;16.60;;;7.17;;
4424;SDS011;2225;53.568;13.266;2023-11-19T01:21:51;12.37;;;7.43;;
4424;SDS011;2225;53.568;13.266;2023-11-19T01:24:18;15.77;;;8.57;;
4424;SDS011;2225;53.568;13.266;2023-11-19T01:26:45;17.63;;;8.03;;
4424;SDS011;2225;53.568;13.266;2023-11-19T01:29:13;14.80;;;7.70;;
4424;SDS011;2225;53.568;13.266;2023-11-19T01:31:45;15.47;;;8.07;;
4424;SDS011;2225;53.568;13.266;2023-11-19T01:34:18;14.67;;;7.73;;
4424;SDS011;2225;53.568;13.266;2023-11-19T01:36:46;16.33;;;7.40;;
4424;SDS011;2225;53.568;13.266;2023-11-19T01:39:15;14.40;;;8.30;;
4424;SDS011;2225;53.568;13.266;2023-11-19T01:41:42;16.77;;;8.43;;
4424;SDS011;2225;53.568;13.266;2023-11-19T01:44:09;15.53;;;8.10;;
4424;SDS011;2225;53.568;13.266;2023-11-19T01:46:40;14.13;;;8.30;;
4424;SDS011;2225;53.568;13.266;2023-11-19T01:49:08;12.70;;;7.97;;
4424;SDS011;2225;53.568;13.266;2023-11-19T01:51:38;14.73;;;7.90;;
4424;SDS011;2225;53.568;13.266;2023-11-19T01:54:06;23.00;;;9.80;;
4424;SDS011;2225;53.568;13.266;2023-11-19T01:56:34;12.00;;;7.43;;
4424;SDS011;2225;53.568;13.266;2023-11-19T01:59:02;14.97;;;9.07;;
4424;SDS011;2225;53.568;13.266;2023-11-19T02:01:30;18.87;;;9.10;;
4424;SDS011;2225;53.568;13.266;2023-11-19T02:03:58;16.93;;;7.93;;
4424;SDS011;2225;53.568;13.266;2023-11-19T02:06:26;16.43;;;9.57;;
4424;SDS011;2225;53.568;13.266;2023-11-19T02:08:54;13.27;;;7.83;;
4424;SDS011;2225;53.568;13.266;2023-11-19T02:11:21;12.60;;;8.03;;
4424;SDS011;2225;53.568;13.266;2023-11-19T02:13:48;16.47;;;9.57;;
4424;SDS011;2225;53.568;13.266;2023-11-19T02:16:15;16.17;;;9.37;;
4424;SDS011;2225;53.568;13.266;2023-11-19T02:18:42;17.97;;;10.00;;
4424;SDS011;2225;53.568;13.266;2023-11-19T02:21:09;18.10;;;10.00;;
4424;SDS011;2225;53.568;13.266;2023-11-19T02:23:37;17.87;;;10.13;;
4424;SDS011;2225;53.568;13.266;2023-11-19T02:26:14;18.20;;;9.63;;
4424;SDS011;2225;53.568;13.266;2023-11-19T02:28:56;15.90;;;10.10;;
4424;SDS011;2225;53.568;13.266;2023-11-19T02:31:23;16.63;;;9.70;;
4424;SDS011;2225;53.568;13.266;2023-11-19T02:33:50;16.80;;;9.10;;
4424;SDS011;2225;53.568;13.266;2023-11-19T02:36:18;15.87;;;9.63;;
4424;SDS011;2225;53.568;13.266;2023-11-19T02:38:46;16.43;;;9.70;;
4424;SDS011;2225;53.568;13.266;2023-11-19T02:41:13;17.33;;;10.33;;
4424;SDS011;2225;53.568;13.266;2023-11-19T02:43:41;21.27;;;10.47;;
4424;SDS011;2225;53.568;13.266;2023-11-19T02:46:08;18.60;;;11.70;;
4424;SDS011;2225;53.568;13.266;2023-11-19T02:48:37;20.30;;;10.17;;
4424;SDS011;2225;53.568;13.266;2023-11-19T02:51:05;14.80;;;8.73;;
4424;SDS011;2225;53.568;13.266;2023-11-19T02:53:36;18.87;;;10.20;;
4424;SDS011;2225;53.568;13.266;2023-11-19T02:56:05;19.00;;;10.27;;
4424;SDS011;2225;53.568;13.266;2023-11-19T02:58:38;16.80;;;9.73;;
4424;SDS011;2225;53.568;13.266;2023-11-19T03:01:05;15.97;;;10.30;;
4424;SDS011;2225;53.568;13.266;2023-11-19T03:03:51;18.13;;;10.67;;
4424;SDS011;2225;53.568;13.266;2023-11-19T03:06:23;16.37;;;10.33;;
4424;SDS011;2225;53.568;13.266;2023-11-19T03:08:51;17.90;;;10.80;;
4424;SDS011;2225;53.568;13.266;2023-11-19T03:11:18;19.90;;;9.97;;
4424;SDS011;2225;53.568;13.266;2023-11-19T03:13:45;17.67;;;10.10;;
4424;SDS011;2225;53.568;13.266;2023-11-19T03:16:13;17.53;;;10.43;;
4424;SDS011;2225;53.568;13.266;2023-11-19T03:18:40;23.47;;;11.10;;
4424;SDS011;2225;53.568;13.266;2023-11-19T03:21:07;17.90;;;10.70;;
4424;SDS011;2225;53.568;13.266;2023-11-19T03:23:34;20.13;;;11.73;;
4424;SDS011;2225;53.568;13.266;2023-11-19T03:26:02;17.37;;;11.07;;
4424;SDS011;2225;53.568;13.266;2023-11-19T03:28:32;19.57;;;11.90;;
4424;SDS011;2225;53.568;13.266;2023-11-19T03:30:59;21.50;;;12.20;;
4424;SDS011;2225;53.568;13.266;2023-11-19T03:33:26;20.87;;;11.90;;
4424;SDS011;2225;53.568;13.266;2023-11-19T03:35:55;20.50;;;11.73;;
4424;SDS011;2225;53.568;13.266;2023-11-19T03:38:23;21.37;;;11.87;;
4424;SDS011;2225;53.568;13.266;2023-11-19T03:40:51;18.97;;;11.37;;
4424;SDS011;2225;53.568;13.266;2023-11-19T03:43:18;19.73;;;11.57;;
4424;SDS011;2225;53.568;13.266;2023-11-19T03:45:47;20.30;;;11.30;;
4424;SDS011;2225;53.568;13.266;2023-11-19T03:48:15;18.70;;;11.30;;
4424;SDS011;2225;53.568;13.266;2023-11-19T03:50:42;18.03;;;12.00;;
4424;SDS011;2225;53.568;13.266;2023-11-19T03:53:11;20.07;;;11.50;;
4424;SDS011;2225;53.568;13.266;2023-11-19T03:55:38;24.17;;;12.17;;
4424;SDS011;2225;53.568;13.266;2023-11-19T03:58:05;22.57;;;13.00;;
4424;SDS011;2225;53.568;13.266;2023-11-19T04:00:32;18.40;;;11.07;;
4424;SDS011;2225;53.568;13.266;2023-11-19T04:02:59;22.83;;;12.63;;
4424;SDS011;2225;53.568;13.266;2023-11-19T04:05:27;21.80;;;13.10;;
4424;SDS011;2225;53.568;13.266;2023-11-19T04:07:54;19.80;;;12.30;;
4424;SDS011;2225;53.568;13.266;2023-11-19T04:10:21;20.00;;;11.70;;
4424;SDS011;2225;53.568;13.266;2023-11-19T04:12:49;20.47;;;12.07;;
4424;SDS011;2225;53.568;13.266;2023-11-19T04:15:16;20.23;;;12.23;;
4424;SDS011;2225;53.568;13.266;2023-11-19T04:17:43;19.40;;;12.60;;
4424;SDS011;2225;53.568;13.266;2023-11-19T04:20:11;20.90;;;12.53;;
4424;SDS011;2225;53.568;13.266;2023-11-19T04:22:40;23.00;;;14.80;;
4424;SDS011;2225;53.568;13.266;2023-11-19T04:25:07;21.60;;;13.53;;
4424;SDS011;2225;53.568;13.266;2023-11-19T04:27:35;24.20;;;13.10;;
4424;SDS011;2225;53.568;13.266;2023-11-19T04:30:03;24.03;;;13.00;;
4424;SDS011;2225;53.568;13.266;2023-11-19T04:32:31;23.10;;;13.20;;
4424;SDS011;2225;53.568;13.266;2023-11-19T04:34:58;25.23;;;14.43;;
4424;SDS011;2225;53.568;13.266;2023-11-19T04:37:25;22.57;;;13.63;;
4424;SDS011;2225;53.568;13.266;2023-11-19T04:39:52;23.97;;;13.47;;
4424;SDS011;2225;53.568;13.266;2023-11-19T04:42:21;23.93;;;14.43;;
4424;SDS011;2225;53.568;13.266;2023-11-19T04:44:49;25.27;;;12.97;;
4424;SDS011;2225;53.568;13.266;2023-11-19T04:47:16;21.40;;;13.43;;
4424;SDS011;2225;53.568;13.266;2023-11-19T04:49:43;20.63;;;12.57;;
4424;SDS011;2225;53.568;13.266;2023-11-19T04:52:10;22.13;;;12.93;;
4424;SDS011;2225;53.568;13.266;2023-11-19T04:54:42;26.50;;;13.03;;
4424;SDS011;2225;53.568;13.266;2023-11-19T04:57:11;24.30;;;13.60;;
4424;SDS011;2225;53.568;13.266;2023-11-19T04:59:39;23.97;;;13.20;;
4424;SDS011;2225;53.568;13.266;2023-11-19T05:02:06;20.90;;;13.10;;
4424;SDS011;2225;53.568;13.266;2023-11-19T05:04:33;20.33;;;13.10;;
4424;SDS011;2225;53.568;13.266;2023-11-19T05:07:00;24.40;;;12.87;;
4424;SDS011;2225;53.568;13.266;2023-11-19T05:09:27;20.90;;;13.10;;
4424;SDS011;2225;53.568;13.266;2023-11-19T05:11:54;27.87;;;13.90;;
4424;SDS011;2225;53.568;13.266;2023-11-19T05:14:21;27.73;;;12.40;;
4424;SDS011;2225;53.568;13.266;2023-11-19T05:16:48;22.57;;;13.00;;
4424;SDS011;2225;53.568;13.266;2023-11-19T05:19:15;26.07;;;13.57;;
4424;SDS011;2225;53.568;13.266;2023-11-19T05:21:42;19.43;;;11.73;;
4424;SDS011;2225;53.568;13.266;2023-11-19T05:24:10;19.73;;;11.87;;
4424;SDS011;2225;53.568;13.266;2023-11-19T05:26:40;21.83;;;11.73;;
4424;SDS011;2225;53.568;13.266;2023-11-19T05:29:07;48.67;;;12.10;;
4424;SDS011;2225;53.568;13.266;2023-11-19T05:31:34;21.70;;;11.70;;
4424;SDS011;2225;53.568;13.266;2023-11-19T05:34:03;21.40;;;11.63;;
4424;SDS011;2225;53.568;13.266;2023-11-19T05:36:30;26.00;;;12.00;;
4424;SDS011;2225;53.568;13.266;2023-11-19T05:38:57;18.27;;;12.10;;
4424;SDS011;2225;53.568;13.266;2023-11-19T05:41:24;20.13;;;11.53;;
4424;SDS011;2225;53.568;13.266;2023-11-19T05:43:51;17.90;;;10.63;;
4424;SDS011;2225;53.568;13.266;2023-11-19T05:46:18;15.57;;;10.10;;
4424;SDS011;2225;53.568;13.266;2023-11-19T05:48:46;17.47;;;10.03;;
4424;SDS011;2225;53.568;13.266;2023-11-19T05:51:14;16.43;;;10.27;;
4424;SDS011;2225;53.568;13.266;2023-11-19T05:53:42;15.43;;;10.50;;
4424;SDS011;2225;53.568;13.266;2023-11-19T05:56:09;14.97;;;9.90;;
4424;SDS011;2225;53.568;13.266;2023-11-19T05:58:36;16.70;;;9.80;;
4424;SDS011;2225;53.568;13.266;2023-11-19T06:01:05;14.07;;;8.67;;
4424;SDS011;2225;53.568;13.266;2023-11-19T06:03:34;15.03;;;10.30;;
4424;SDS011;2225;53.568;13.266;2023-11-19T06:06:01;13.27;;;8.40;;
4424;SDS011;2225;53.568;13.266;2023-11-19T06:08:28;16.63;;;8.80;;
4424;SDS011;2225;53.568;13.266;2023-11-19T06:10:56;18.40;;;10.07;;
4424;SDS011;2225;53.568;13.266;2023-11-19T06:13:23;14.43;;;9.00;;
4424;SDS011;2225;53.568;13.266;2023-11-19T06:15:52;13.93;;;8.80;;
4424;SDS011;2225;53.568;13.266;2023-11-19T06:18:19;15.03;;;9.07;;
4424;SDS011;2225;53.568;13.266;2023-11-19T06:20:49;14.30;;;8.47;;
4424;SDS011;2225;53.568;13.266;2023-11-19T06:23:16;17.00;;;8.80;;
4424;SDS011;2225;53.568;13.266;2023-11-19T06:25:43;13.43;;;8.53;;
4424;SDS011;2225;53.568;13.266;2023-11-19T06:28:10;21.20;;;9.17;;
4424;SDS011;2225;53.568;13.266;2023-11-19T06:30:37;16.03;;;8.50;;
4424;SDS011;2225;53.568;13.266;2023-11-19T06:33:04;15.17;;;8.40;;
4424;SDS011;2225;53.568;13.266;2023-11-19T06:35:31;14.10;;;7.53;;
4424;SDS011;2225;53.568;13.266;2023-11-19T06:38:03;12.33;;;7.10;;
4424;SDS011;2225;53.568;13.266;2023-11-19T06:40:31;11.97;;;7.23;;
4424;SDS011;2225;53.568;13.266;2023-11-19T06:43:01;13.93;;;7.70;;
4424;SDS011;2225;53.568;13.266;2023-11-19T06:45:30;13.60;;;7.77;;
4424;SDS011;2225;53.568;13.266;2023-11-19T06:47:57;10.30;;;6.30;;
4424;SDS011;2225;53.568;13.266;2023-11-19T06:50:25;12.80;;;6.70;;
4424;SDS011;2225;53.568;13.266;2023-11-19T06:52:52;12.23;;;6.90;;
4424;SDS011;2225;53.568;13.266;2023-11-19T06:55:18;9.77;;;6.00;;
4424;SDS011;2225;53.568;13.266;2023-11-19T06:57:45;13.10;;;6.47;;
4424;SDS011;2225;53.568;13.266;2023-11-19T07:00:12;12.10;;;6.27;;
4424;SDS011;2225;53.568;13.266;2023-11-19T07:02:40;12.70;;;5.77;;
4424;SDS011;2225;53.568;13.266;2023-11-19T07:05:07;10.30;;;5.97;;
4424;SDS011;2225;53.568;13.266;2023-11-19T07:07:34;10.20;;;6.20;;
4424;SDS011;2225;53.568;13.266;2023-11-19T07:10:02;10.83;;;5.43;;
4424;SDS011;2225;53.568;13.266;2023-11-19T07:12:30;9.43;;;5.40;;
4424;SDS011;2225;53.568;13.266;2023-11-19T07:14:57;9.30;;;5.40;;
4424;SDS011;2225;53.568;13.266;2023-11-19T07:17:24;8.73;;;5.47;;
4424;SDS011;2225;53.568;13.266;2023-11-19T07:19:51;11.40;;;5.97;;
4424;SDS011;2225;53.568;13.266;2023-11-19T07:22:18;9.67;;;5.27;;
4424;SDS011;2225;53.568;13.266;2023-11-19T07:24:46;6.70;;;4.23;;
4424;SDS011;2225;53.568;13.266;2023-11-19T07:27:13;7.93;;;4.90;;
4424;SDS011;2225;53.568;13.266;2023-11-19T07:29:40;9.53;;;5.00;;
4424;SDS011;2225;53.568;13.266;2023-11-19T07:32:09;11.23;;;4.40;;
4424;SDS011;2225;53.568;13.266;2023-11-19T07:34:36;8.63;;;4.80;;
4424;SDS011;2225;53.568;13.266;2023-11-19T07:37:03;7.10;;;3.87;;
4424;SDS011;2225;53.568;13.266;2023-11-19T07:39:30;6.80;;;4.10;;
4424;SDS011;2225;53.568;13.266;2023-11-19T07:41:58;7.00;;;3.80;;
4424;SDS011;2225;53.568;13.266;2023-11-19T07:44:26;7.87;;;4.57;;
4424;SDS011;2225;53.568;13.266;2023-11-19T07:46:53;8.30;;;3.93;;
4424;SDS011;2225;53.568;13.266;2023-11-19T07:49:20;8.00;;;4.37;;
4424;SDS011;2225;53.568;13.266;2023-11-19T07:51:47;7.40;;;3.70;;
4424;SDS011;2225;53.568;13.266;2023-11-19T07:54:14;6.73;;;4.00;;
4424;SDS011;2225;53.568;13.266;2023-11-19T07:56:41;5.80;;;3.17;;
4424;SDS011;2225;53.568;13.266;2023-11-19T07:59:08;6.27;;;3.47;;
4424;SDS011;2225;53.568;13.266;2023-11-19T08:01:35;5.60;;;2.83;;
4424;SDS011;2225;53.568;13.266;2023-11-19T08:04:02;6.37;;;2.73;;
4424;SDS011;2225;53.568;13.266;2023-11-19T08:06:29;6.50;;;3.43;;
4424;SDS011;2225;53.568;13.266;2023-11-19T08:08:56;6.63;;;3.00;;
4424;SDS011;2225;53.568;13.266;2023-11-19T08:11:23;7.53;;;3.30;;
4424;SDS011;2225;53.568;13.266;2023-11-19T08:13:50;5.87;;;3.30;;
4424;SDS011;2225;53.568;13.266;2023-11-19T08:16:17;6.47;;;3.43;;
4424;SDS011;2225;53.568;13.266;2023-11-19T08:18:44;5.23;;;2.97;;
4424;SDS011;2225;53.568;13.266;2023-11-19T08:21:11;5.30;;;3.03;;
4424;SDS011;2225;53.568;13.266;2023-11-19T08:23:38;5.50;;;2.70;;
4424;SDS011;2225;53.568;13.266;2023-11-19T08:26:05;6.00;;;3.40;;
4424;SDS011;2225;53.568;13.266;2023-11-19T08:28:33;7.30;;;3.30;;
4424;SDS011;2225;53.568;13.266;2023-11-19T08:31:01;7.23;;;3.57;;
4424;SDS011;2225;53.568;13.266;2023-11-19T08:33:31;5.63;;;3.27;;
4424;SDS011;2225;53.568;13.266;2023-11-19T08:35:58;6.40;;;3.47;;
4424;SDS011;2225;53.568;13.266;2023-11-19T08:38:25;5.40;;;2.60;;
4424;SDS011;2225;53.568;13.266;2023-11-19T08:40:55;6.10;;;3.30;;
4424;SDS011;2225;53.568;13.266;2023-11-19T08:43:26;5.90;;;3.20;;
4424;SDS011;2225;53.568;13.266;2023-11-19T08:45:54;5.30;;;2.97;;
4424;SDS011;2225;53.568;13.266;2023-11-19T08:48:21;6.40;;;2.40;;
4424;SDS011;2225;53.568;13.266;2023-11-19T08:50:48;6.73;;;3.10;;
4424;SDS011;2225;53.568;13.266;2023-11-19T08:53:15;6.03;;;2.90;;
4424;SDS011;2225;53.568;13.266;2023-11-19T08:55:42;5.73;;;3.20;;
4424;SDS011;2225;53.568;13.266;2023-11-19T08:58:09;7.10;;;4.07;;
4424;SDS011;2225;53.568;13.266;2023-11-19T09:00:36;8.90;;;3.50;;
4424;SDS011;2225;53.568;13.266;2023-11-19T09:03:03;7.00;;;3.10;;
4424;SDS011;2225;53.568;13.266;2023-11-19T09:05:30;5.97;;;3.17;;
4424;SDS011;2225;53.568;13.266;2023-11-19T09:07:57;12.93;;;2.80;;
4424;SDS011;2225;53.568;13.266;2023-11-19T09:10:24;6.00;;;2.63;;
4424;SDS011;2225;53.568;13.266;2023-11-19T09:12:53;11.03;;;3.00;;
4424;SDS011;2225;53.568;13.266;2023-11-19T09:15:23;6.53;;;3.37;;
4424;SDS011;2225;53.568;13.266;2023-11-19T09:17:50;15.70;;;3.13;;
4424;SDS011;2225;53.568;13.266;2023-11-19T09:20:18;6.67;;;3.20;;
4424;SDS011;2225;53.568;13.266;2023-11-19T09:22:45;6.80;;;3.43;;
4424;SDS011;2225;53.568;13.266;2023-11-19T09:25:12;5.40;;;2.70;;
4424;SDS011;2225;53.568;13.266;2023-11-19T09:27:43;5.43;;;3.00;;
4424;SDS011;2225;53.568;13.266;2023-11-19T09:30:10;5.93;;;2.63;;
4424;SDS011;2225;53.568;13.266;2023-11-19T09:32:39;5.40;;;2.90;;
4424;SDS011;2225;53.568;13.266;2023-11-19T09:35:07;6.87;;;2.80;;
4424;SDS011;2225;53.568;13.266;2023-11-19T09:37:34;4.83;;;2.30;;
4424;SDS011;2225;53.568;13.266;2023-11-19T09:40:01;6.37;;;2.47;;
4424;SDS011;2225;53.568;13.266;2023-11-19T09:42:28;5.13;;;2.40;;
4424;SDS011;2225;53.568;13.266;2023-11-19T09:44:58;5.87;;;2.30;;
4424;SDS011;2225;53.568;13.266;2023-11-19T09:47:25;4.53;;;2.50;;
4424;SDS011;2225;53.568;13.266;2023-11-19T09:49:54;7.27;;;2.73;;
4424;SDS011;2225;53.568;13.266;2023-11-19T09:52:24;9.43;;;3.20;;
4424;SDS011;2225;53.568;13.266;2023-11-19T09:54:51;6.00;;;2.90;;
4424;SDS011;2225;53.568;13.266;2023-11-19T09:57:18;6.67;;;3.47;;
4424;SDS011;2225;53.568;13.266;2023-11-19T09:59:45;7.27;;;3.33;;
4424;SDS011;2225;53.568;13.266;2023-11-19T10:02:14;7.50;;;3.10;;
4424;SDS011;2225;53.568;13.266;2023-11-19T10:04:41;11.50;;;3.40;;
4424;SDS011;2225;53.568;13.266;2023-11-19T10:07:10;7.50;;;3.70;;
4424;SDS011;2225;53.568;13.266;2023-11-19T10:09:38;6.10;;;2.90;;
4424;SDS011;2225;53.568;13.266;2023-11-19T10:12:05;9.10;;;4.30;;
4424;SDS011;2225;53.568;13.266;2023-11-19T10:14:32;10.50;;;3.50;;
4424;SDS011;2225;53.568;13.266;2023-11-19T10:17:06;7.93;;;3.73;;
4424;SDS011;2225;53.568;13.266;2023-11-19T10:19:34;10.00;;;4.70;;
4424;SDS011;2225;53.568;13.266;2023-11-19T10:22:04;9.80;;;4.30;;
4424;SDS011;2225;53.568;13.266;2023-11-19T10:24:32;8.40;;;4.97;;
4424;SDS011;2225;53.568;13.266;2023-11-19T10:27:06;14.60;;;4.43;;
4424;SDS011;2225;53.568;13.266;2023-11-19T10:29:37;8.53;;;4.23;;
4424;SDS011;2225;53.568;13.266;2023-11-19T10:32:04;9.23;;;4.30;;
4424;SDS011;2225;53.568;13.266;2023-11-19T10:34:51;14.50;;;5.57;;
4424;SDS011;2225;53.568;13.266;2023-11-19T10:37:28;13.00;;;7.40;;
4424;SDS011;2225;53.568;13.266;2023-11-19T10:39:58;10.10;;;4.57;;
4424;SDS011;2225;53.568;13.266;2023-11-19T10:42:25;11.43;;;5.60;;
4424;SDS011;2225;53.568;13.266;2023-11-19T10:44:51;12.30;;;5.90;;
4424;SDS011;2225;53.568;13.266;2023-11-19T10:47:19;12.57;;;7.30;;
4424;SDS011;2225;53.568;13.266;2023-11-19T10:50:03;10.70;;;6.07;;
4424;SDS011;2225;53.568;13.266;2023-11-19T10:52:32;13.83;;;6.27;;
4424;SDS011;2225;53.568;13.266;2023-11-19T10:55:01;9.63;;;4.60;;
4424;SDS011;2225;53.568;13.266;2023-11-19T10:57:32;13.43;;;6.80;;
4424;SDS011;2225;53.568;13.266;2023-11-19T11:00:03;9.20;;;5.20;;
4424;SDS011;2225;53.568;13.266;2023-11-19T11:02:40;15.13;;;5.43;;
4424;SDS011;2225;53.568;13.266;2023-11-19T11:05:12;8.33;;;4.93;;
4424;SDS011;2225;53.568;13.266;2023-11-19T11:07:40;9.33;;;5.20;;
4424;SDS011;2225;53.568;13.266;2023-11-19T11:10:10;11.60;;;6.73;;
4424;SDS011;2225;53.568;13.266;2023-11-19T11:12:39;21.07;;;10.97;;
4424;SDS011;2225;53.568;13.266;2023-11-19T11:15:08;12.00;;;6.90;;
4424;SDS011;2225;53.568;13.266;2023-11-19T11:17:41;14.77;;;7.67;;
4424;SDS011;2225;53.568;13.266;2023-11-19T11:20:10;12.60;;;6.63;;
4424;SDS011;2225;53.568;13.266;2023-11-19T11:22:42;11.17;;;5.40;;
4424;SDS011;2225;53.568;13.266;2023-11-19T11:28:10;13.97;;;6.10;;
4424;SDS011;2225;53.568;13.266;2023-11-19T11:30:53;14.03;;;5.43;;
4424;SDS011;2225;53.568;13.266;2023-11-19T11:37:01;23.83;;;7.57;;
4424;SDS011;2225;53.568;13.266;2023-11-19T11:39:40;20.10;;;8.40;;
4424;SDS011;2225;53.568;13.266;2023-11-19T11:50:13;13.40;;;7.53;;
4424;SDS011;2225;53.568;13.266;2023-11-19T11:58:03;22.23;;;10.00;;
4424;SDS011;2225;53.568;13.266;2023-11-19T12:00:32;14.10;;;6.80;;
4424;SDS011;2225;53.568;13.266;2023-11-19T12:03:06;13.23;;;7.03;;
4424;SDS011;2225;53.568;13.266;2023-11-19T12:05:40;17.60;;;7.13;;
4424;SDS011;2225;53.568;13.266;2023-11-19T12:08:13;20.37;;;6.80;;
4424;SDS011;2225;53.568;13.266;2023-11-19T12:10:51;15.70;;;6.10;;
4424;SDS011;2225;53.568;13.266;2023-11-19T12:13:20;13.57;;;6.30;;
4424;SDS011;2225;53.568;13.266;2023-11-19T12:18:27;20.97;;;10.90;;
4424;SDS011;2225;53.568;13.266;2023-11-19T12:20:58;23.87;;;10.40;;
4424;SDS011;2225;53.568;13.266;2023-11-19T12:23:27;15.87;;;7.90;;
4424;SDS011;2225;53.568;13.266;2023-11-19T12:25:56;17.67;;;6.53;;
4424;SDS011;2225;53.568;13.266;2023-11-19T12:28:24;18.47;;;5.70;;
4424;SDS011;2225;53.568;13.266;2023-11-19T12:30:53;20.30;;;5.97;;
4424;SDS011;2225;53.568;13.266;2023-11-19T12:33:33;15.10;;;5.20;;
4424;SDS011;2225;53.568;13.266;2023-11-19T12:36:02;13.90;;;4.63;;
4424;SDS011;2225;53.568;13.266;2023-11-19T12:38:32;20.33;;;5.10;;
4424;SDS011;2225;53.568;13.266;2023-11-19T12:41:02;19.90;;;4.43;;
4424;SDS011;2225;53.568;13.266;2023-11-19T12:43:30;32.67;;;19.70;;
4424;SDS011;2225;53.568;13.266;2023-11-19T12:45:57;26.10;;;8.50;;
4424;SDS011;2225;53.568;13.266;2023-11-19T12:48:24;17.03;;;6.10;;
4424;SDS011;2225;53.568;13.266;2023-11-19T12:53:26;28.77;;;6.80;;
4424;SDS011;2225;53.568;13.266;2023-11-19T12:55:54;19.93;;;6.20;;
4424;SDS011;2225;53.568;13.266;2023-11-19T12:58:55;36.67;;;6.60;;
4424;SDS011;2225;53.568;13.266;2023-11-19T13:01:16;22.47;;;6.73;;
4424;SDS011;2225;53.568;13.266;2023-11-19T13:03:46;36.03;;;5.97;;
4424;SDS011;2225;53.568;13.266;2023-11-19T13:06:15;33.30;;;6.77;;
4424;SDS011;2225;53.568;13.266;2023-11-19T13:08:45;26.03;;;6.07;;
4424;SDS011;2225;53.568;13.266;2023-11-19T13:11:29;32.47;;;6.37;;
4424;SDS011;2225;53.568;13.266;2023-11-19T13:13:59;23.33;;;5.67;;
4424;SDS011;2225;53.568;13.266;2023-11-19T13:16:30;25.33;;;5.90;;
4424;SDS011;2225;53.568;13.266;2023-11-19T13:18:57;29.40;;;7.00;;
4424;SDS011;2225;53.568;13.266;2023-11-19T13:21:26;26.10;;;7.63;;
4424;SDS011;2225;53.568;13.266;2023-11-19T13:23:53;32.07;;;6.40;;
4424;SDS011;2225;53.568;13.266;2023-11-19T13:26:20;29.07;;;5.73;;
4424;SDS011;2225;53.568;13.266;2023-11-19T13:28:47;25.00;;;5.53;;
4424;SDS011;2225;53.568;13.266;2023-11-19T13:31:15;30.50;;;6.27;;
4424;SDS011;2225;53.568;13.266;2023-11-19T13:33:42;33.83;;;6.37;;
4424;SDS011;2225;53.568;13.266;2023-11-19T13:36:09;24.57;;;5.47;;
4424;SDS011;2225;53.568;13.266;2023-11-19T13:38:41;34.10;;;6.20;;
4424;SDS011;2225;53.568;13.266;2023-11-19T13:41:10;30.23;;;6.57;;
4424;SDS011;2225;53.568;13.266;2023-11-19T13:43:38;26.97;;;5.80;;
4424;SDS011;2225;53.568;13.266;2023-11-19T13:46:05;25.57;;;6.43;;
4424;SDS011;2225;53.568;13.266;2023-11-19T13:48:33;33.13;;;7.03;;
4424;SDS011;2225;53.568;13.266;2023-11-19T13:51:00;34.57;;;7.40;;
4424;SDS011;2225;53.568;13.266;2023-11-19T13:53:27;49.53;;;15.23;;
4424;SDS011;2225;53.568;13.266;2023-11-19T13:55:54;40.03;;;10.50;;
4424;SDS011;2225;53.568;13.266;2023-11-19T13:58:20;36.67;;;9.33;;
4424;SDS011;2225;53.568;13.266;2023-11-19T14:00:47;35.10;;;8.00;;
4424;SDS011;2225;53.568;13.266;2023-11-19T14:03:14;29.77;;;6.87;;
4424;SDS011;2225;53.568;13.266;2023-11-19T14:05:41;38.57;;;8.33;;
4424;SDS011;2225;53.568;13.266;2023-11-19T14:08:08;37.87;;;7.57;;
4424;SDS011;2225;53.568;13.266;2023-11-19T14:10:50;31.70;;;7.73;;
4424;SDS011;2225;53.568;13.266;2023-11-19T14:13:18;31.77;;;7.70;;
4424;SDS011;2225;53.568;13.266;2023-11-19T14:15:45;35.80;;;7.77;;
4424;SDS011;2225;53.568;13.266;2023-11-19T14:18:15;39.67;;;7.37;;
4424;SDS011;2225;53.568;13.266;2023-11-19T14:20:43;34.80;;;7.00;;
4424;SDS011;2225;53.568;13.266;2023-11-19T14:23:10;30.83;;;6.20;;
4424;SDS011;2225;53.568;13.266;2023-11-19T14:25:37;32.57;;;7.00;;
4424;SDS011;2225;53.568;13.266;2023-11-19T14:28:04;26.90;;;7.43;;
4424;SDS011;2225;53.568;13.266;2023-11-19T14:30:32;31.43;;;6.67;;
4424;SDS011;2225;53.568;13.266;2023-11-19T14:33:00;26.10;;;5.83;;
4424;SDS011;2225;53.568;13.266;2023-11-19T14:35:27;32.60;;;7.17;;
4424;SDS011;2225;53.568;13.266;2023-11-19T14:37:56;23.83;;;4.97;;
4424;SDS011;2225;53.568;13.266;2023-11-19T14:40:23;35.13;;;6.77;;
4424;SDS011;2225;53.568;13.266;2023-11-19T14:43:08;29.87;;;6.20;;
4424;SDS011;2225;53.568;13.266;2023-11-19T14:45:38;32.73;;;6.90;;
4424;SDS011;2225;53.568;13.266;2023-11-19T14:48:15;25.27;;;5.70;;
4424;SDS011;2225;53.568;13.266;2023-11-19T14:50:43;39.73;;;6.50;;
4424;SDS011;2225;53.568;13.266;2023-11-19T14:53:10;41.27;;;7.57;;
4424;SDS011;2225;53.568;13.266;2023-11-19T14:55:37;27.23;;;6.40;;
4424;SDS011;2225;53.568;13.266;2023-11-19T14:58:04;26.70;;;6.90;;
4424;SDS011;2225;53.568;13.266;2023-11-19T15:00:37;35.20;;;8.80;;
4424;SDS011;2225;53.568;13.266;2023-11-19T15:03:04;28.57;;;5.93;;
4424;SDS011;2225;53.568;13.266;2023-11-19T15:05:32;37.47;;;6.37;;
4424;SDS011;2225;53.568;13.266;2023-11-19T15:07:59;31.27;;;6.37;;
4424;SDS011;2225;53.568;13.266;2023-11-19T15:10:26;35.27;;;7.00;;
4424;SDS011;2225;53.568;13.266;2023-11-19T15:12:53;32.53;;;7.40;;
4424;SDS011;2225;53.568;13.266;2023-11-19T15:15:20;38.67;;;7.27;;
4424;SDS011;2225;53.568;13.266;2023-11-19T15:17:51;36.33;;;7.27;;
4424;SDS011;2225;53.568;13.266;2023-11-19T15:20:18;32.80;;;6.60;;